Terminal Aerodrome Forecast
Issued by NWS Newport/Morehead City, NC

Home | Current Version | Previous Version | Graphics & Text | Print | Product List | Glossary On
Versions: 1 2 3 4 5 6 7 8 9 10 11 12 13
000
FTUS42 KMHX 211700
TAFEWN
TAF
KEWN 211735Z 2118/2218 34010G18KT P6SM SCT030
     FM212100 01007KT P6SM SKC
     FM220900 00000KT 4SM BR SKC
     FM221200 24005KT P6SM BKN150=

USA.gov is the U.S. government's official web portal to all federal, state and local government web resources and services.